Startpagina
METAR-TAF:

METAR-TAF

Vliegvelden :

Teheran, Iran

Teheran Mehrabad International Airport

breedte: 35-41N, lengte: 051-21E, hoogte: 1204 m

Actueel weer

Dit bericht is 38 minuten geleden gemaakt, om 01:30 UTC
Wind 6 kt uit het noorden
Temperatuur 21°C
Vochtigheid 21%
Druk 1017 hPa
Zicht 10 km of meer
geen wolken onder 1500 m en geen cumulonimbus

METAR: OIII 230130Z 35006KT CAVOK 21/M02 Q1017 A3004 NOSIG

Tijdstip: 05:38 (02:08 UTC)

Verwachting

Dit bericht is 3 uur en het 8 minuten geleden gemaakt, om 23:00 UTC
Verwachting geldig van 23 om 00 UTC tot 24 om 06 UTC
Wind 8 kt uit het zuidoosten
Zicht: 8000 m

TAF: OIII 222300Z 2300/2406 14004MPS 8000 NSC

Waarnemingen en weersverwachtingen van meer dan 4000 vliegvelden (METAR en TAF).

De beschikbare stations zijn de gele en rode punten op de kaart.

Ga met uw muis naar het station om de naam te zien.

Klik dan om waarnemingen en weersverwachtingen te zien.

kaart wijzigen: klik op de groene knoppen met een zwart kruis om in te zoomen, op de groene knop met een streepje om uit te zoomen of op de groene pijlen voor aangrenzende kaarten.


METAR-TAF: